sensor_id;sensor_type;location;lat;lon;timestamp;P1;durP1;ratioP1;P2;durP2;ratioP2
66478;SDS011;53294;47.912;13.526;2023-05-10T00:00:44;10.57;;;6.72;;
66478;SDS011;53294;47.912;13.526;2023-05-10T00:03:11;9.57;;;7.07;;
66478;SDS011;53294;47.912;13.526;2023-05-10T00:05:38;10.40;;;6.80;;
66478;SDS011;53294;47.912;13.526;2023-05-10T00:08:05;8.90;;;6.57;;
66478;SDS011;53294;47.912;13.526;2023-05-10T00:10:31;8.98;;;6.60;;
66478;SDS011;53294;47.912;13.526;2023-05-10T00:12:58;8.27;;;6.10;;
66478;SDS011;53294;47.912;13.526;2023-05-10T00:15:25;8.15;;;5.90;;
66478;SDS011;53294;47.912;13.526;2023-05-10T00:17:51;10.32;;;6.55;;
66478;SDS011;53294;47.912;13.526;2023-05-10T00:20:18;8.68;;;6.53;;
66478;SDS011;53294;47.912;13.526;2023-05-10T00:22:45;9.40;;;6.65;;
66478;SDS011;53294;47.912;13.526;2023-05-10T00:25:11;8.23;;;6.18;;
66478;SDS011;53294;47.912;13.526;2023-05-10T00:27:38;9.60;;;6.78;;
66478;SDS011;53294;47.912;13.526;2023-05-10T00:30:05;9.68;;;6.35;;
66478;SDS011;53294;47.912;13.526;2023-05-10T00:32:32;8.65;;;6.28;;
66478;SDS011;53294;47.912;13.526;2023-05-10T00:34:59;7.85;;;5.90;;
66478;SDS011;53294;47.912;13.526;2023-05-10T00:37:26;8.23;;;6.38;;
66478;SDS011;53294;47.912;13.526;2023-05-10T00:39:53;8.65;;;6.20;;
66478;SDS011;53294;47.912;13.526;2023-05-10T00:42:19;8.75;;;6.38;;
66478;SDS011;53294;47.912;13.526;2023-05-10T00:44:46;9.43;;;7.10;;
66478;SDS011;53294;47.912;13.526;2023-05-10T00:47:13;8.88;;;6.25;;
66478;SDS011;53294;47.912;13.526;2023-05-10T00:49:40;9.35;;;7.03;;
66478;SDS011;53294;47.912;13.526;2023-05-10T00:52:08;8.95;;;6.70;;
66478;SDS011;53294;47.912;13.526;2023-05-10T00:54:35;7.65;;;6.25;;
66478;SDS011;53294;47.912;13.526;2023-05-10T00:57:02;8.32;;;6.57;;
66478;SDS011;53294;47.912;13.526;2023-05-10T00:59:29;8.63;;;6.70;;
66478;SDS011;53294;47.912;13.526;2023-05-10T01:01:56;9.18;;;6.18;;
66478;SDS011;53294;47.912;13.526;2023-05-10T01:04:24;9.82;;;7.15;;
66478;SDS011;53294;47.912;13.526;2023-05-10T01:06:54;8.85;;;6.40;;
66478;SDS011;53294;47.912;13.526;2023-05-10T01:09:21;9.38;;;6.93;;
66478;SDS011;53294;47.912;13.526;2023-05-10T01:11:49;8.20;;;6.10;;
66478;SDS011;53294;47.912;13.526;2023-05-10T01:14:17;8.48;;;6.18;;
66478;SDS011;53294;47.912;13.526;2023-05-10T01:16:46;8.93;;;6.30;;
66478;SDS011;53294;47.912;13.526;2023-05-10T01:19:25;9.60;;;6.97;;
66478;SDS011;53294;47.912;13.526;2023-05-10T01:30:08;9.77;;;7.27;;
66478;SDS011;53294;47.912;13.526;2023-05-10T01:33:01;10.55;;;7.10;;
66478;SDS011;53294;47.912;13.526;2023-05-10T01:40:47;8.25;;;6.15;;
66478;SDS011;53294;47.912;13.526;2023-05-10T01:43:25;7.80;;;6.15;;
66478;SDS011;53294;47.912;13.526;2023-05-10T01:48:27;9.23;;;6.63;;
66478;SDS011;53294;47.912;13.526;2023-05-10T01:50:56;10.70;;;6.40;;
66478;SDS011;53294;47.912;13.526;2023-05-10T01:53:24;8.57;;;5.80;;
66478;SDS011;53294;47.912;13.526;2023-05-10T01:55:52;7.57;;;5.63;;
66478;SDS011;53294;47.912;13.526;2023-05-10T01:58:30;8.35;;;6.40;;
66478;SDS011;53294;47.912;13.526;2023-05-10T02:01:00;9.20;;;6.22;;
66478;SDS011;53294;47.912;13.526;2023-05-10T02:03:29;8.60;;;6.18;;
66478;SDS011;53294;47.912;13.526;2023-05-10T02:05:58;10.40;;;6.88;;
66478;SDS011;53294;47.912;13.526;2023-05-10T02:08:25;9.80;;;6.47;;
66478;SDS011;53294;47.912;13.526;2023-05-10T02:10:53;9.95;;;5.88;;
66478;SDS011;53294;47.912;13.526;2023-05-10T02:13:23;8.60;;;6.60;;
66478;SDS011;53294;47.912;13.526;2023-05-10T02:15:52;8.82;;;6.97;;
66478;SDS011;53294;47.912;13.526;2023-05-10T02:18:20;9.57;;;7.32;;
66478;SDS011;53294;47.912;13.526;2023-05-10T02:20:50;10.00;;;6.93;;
66478;SDS011;53294;47.912;13.526;2023-05-10T02:23:19;9.02;;;7.15;;
66478;SDS011;53294;47.912;13.526;2023-05-10T02:25:47;9.63;;;7.22;;
66478;SDS011;53294;47.912;13.526;2023-05-10T02:28:15;8.27;;;6.82;;
66478;SDS011;53294;47.912;13.526;2023-05-10T02:30:43;9.10;;;6.90;;
66478;SDS011;53294;47.912;13.526;2023-05-10T02:33:10;8.45;;;4.97;;
66478;SDS011;53294;47.912;13.526;2023-05-10T02:35:38;8.65;;;5.88;;
66478;SDS011;53294;47.912;13.526;2023-05-10T02:38:05;9.00;;;6.10;;
66478;SDS011;53294;47.912;13.526;2023-05-10T02:40:33;8.20;;;6.00;;
66478;SDS011;53294;47.912;13.526;2023-05-10T02:43:03;10.18;;;7.25;;
66478;SDS011;53294;47.912;13.526;2023-05-10T02:45:32;11.07;;;8.30;;
66478;SDS011;53294;47.912;13.526;2023-05-10T02:48:01;7.25;;;5.78;;
66478;SDS011;53294;47.912;13.526;2023-05-10T02:50:29;8.48;;;6.90;;
66478;SDS011;53294;47.912;13.526;2023-05-10T02:53:03;8.93;;;6.38;;
66478;SDS011;53294;47.912;13.526;2023-05-10T02:55:37;8.05;;;5.75;;
66478;SDS011;53294;47.912;13.526;2023-05-10T02:58:06;7.68;;;5.50;;
66478;SDS011;53294;47.912;13.526;2023-05-10T03:00:33;8.95;;;6.38;;
66478;SDS011;53294;47.912;13.526;2023-05-10T03:03:01;7.63;;;5.72;;
66478;SDS011;53294;47.912;13.526;2023-05-10T03:05:28;7.82;;;5.40;;
66478;SDS011;53294;47.912;13.526;2023-05-10T03:07:55;7.00;;;5.20;;
66478;SDS011;53294;47.912;13.526;2023-05-10T03:10:26;5.68;;;3.95;;
66478;SDS011;53294;47.912;13.526;2023-05-10T03:13:11;6.50;;;4.85;;
66478;SDS011;53294;47.912;13.526;2023-05-10T03:15:55;8.10;;;5.68;;
66478;SDS011;53294;47.912;13.526;2023-05-10T03:18:29;5.10;;;3.70;;
66478;SDS011;53294;47.912;13.526;2023-05-10T03:21:04;4.47;;;2.72;;
66478;SDS011;53294;47.912;13.526;2023-05-10T03:23:35;2.58;;;1.70;;
66478;SDS011;53294;47.912;13.526;2023-05-10T03:26:18;2.30;;;1.60;;
66478;SDS011;53294;47.912;13.526;2023-05-10T03:28:50;3.15;;;1.50;;
66478;SDS011;53294;47.912;13.526;2023-05-10T03:31:17;4.22;;;2.08;;
66478;SDS011;53294;47.912;13.526;2023-05-10T03:33:48;3.05;;;2.08;;
66478;SDS011;53294;47.912;13.526;2023-05-10T03:36:15;3.15;;;1.98;;
66478;SDS011;53294;47.912;13.526;2023-05-10T03:38:43;3.45;;;2.20;;
66478;SDS011;53294;47.912;13.526;2023-05-10T03:41:09;4.03;;;2.70;;
66478;SDS011;53294;47.912;13.526;2023-05-10T03:43:36;4.43;;;2.45;;
66478;SDS011;53294;47.912;13.526;2023-05-10T03:46:03;5.20;;;3.10;;
66478;SDS011;53294;47.912;13.526;2023-05-10T03:48:32;6.20;;;3.67;;
66478;SDS011;53294;47.912;13.526;2023-05-10T03:50:59;6.93;;;3.78;;
66478;SDS011;53294;47.912;13.526;2023-05-10T03:53:26;6.13;;;3.95;;
66478;SDS011;53294;47.912;13.526;2023-05-10T03:55:53;5.97;;;4.05;;
66478;SDS011;53294;47.912;13.526;2023-05-10T03:58:19;6.85;;;4.03;;
66478;SDS011;53294;47.912;13.526;2023-05-10T04:00:46;6.10;;;4.32;;
66478;SDS011;53294;47.912;13.526;2023-05-10T04:03:13;8.20;;;4.28;;
66478;SDS011;53294;47.912;13.526;2023-05-10T04:05:40;5.43;;;4.10;;
66478;SDS011;53294;47.912;13.526;2023-05-10T04:08:07;6.18;;;3.53;;
66478;SDS011;53294;47.912;13.526;2023-05-10T04:10:34;4.47;;;3.00;;
66478;SDS011;53294;47.912;13.526;2023-05-10T04:13:00;5.03;;;3.10;;
66478;SDS011;53294;47.912;13.526;2023-05-10T04:15:27;5.10;;;3.72;;
66478;SDS011;53294;47.912;13.526;2023-05-10T04:17:54;5.15;;;3.20;;
66478;SDS011;53294;47.912;13.526;2023-05-10T04:20:20;5.00;;;2.95;;
66478;SDS011;53294;47.912;13.526;2023-05-10T04:22:47;3.47;;;2.20;;
66478;SDS011;53294;47.912;13.526;2023-05-10T04:25:14;5.15;;;3.10;;
66478;SDS011;53294;47.912;13.526;2023-05-10T04:27:40;5.10;;;2.97;;
66478;SDS011;53294;47.912;13.526;2023-05-10T04:30:07;4.22;;;2.65;;
66478;SDS011;53294;47.912;13.526;2023-05-10T04:32:35;4.72;;;3.00;;
66478;SDS011;53294;47.912;13.526;2023-05-10T04:35:01;5.15;;;2.90;;
66478;SDS011;53294;47.912;13.526;2023-05-10T04:37:29;4.68;;;3.10;;
66478;SDS011;53294;47.912;13.526;2023-05-10T04:39:56;5.00;;;3.67;;
66478;SDS011;53294;47.912;13.526;2023-05-10T04:42:23;5.20;;;3.20;;
66478;SDS011;53294;47.912;13.526;2023-05-10T04:44:49;4.22;;;2.72;;
66478;SDS011;53294;47.912;13.526;2023-05-10T04:47:18;4.40;;;2.83;;
66478;SDS011;53294;47.912;13.526;2023-05-10T04:49:44;3.90;;;2.58;;
66478;SDS011;53294;47.912;13.526;2023-05-10T04:52:11;3.88;;;2.70;;
66478;SDS011;53294;47.912;13.526;2023-05-10T04:54:38;4.90;;;3.22;;
66478;SDS011;53294;47.912;13.526;2023-05-10T04:57:04;4.80;;;3.20;;
66478;SDS011;53294;47.912;13.526;2023-05-10T04:59:31;5.05;;;2.47;;
66478;SDS011;53294;47.912;13.526;2023-05-10T05:01:57;4.88;;;3.22;;
66478;SDS011;53294;47.912;13.526;2023-05-10T05:04:24;3.95;;;2.55;;
66478;SDS011;53294;47.912;13.526;2023-05-10T05:06:51;3.83;;;2.47;;
66478;SDS011;53294;47.912;13.526;2023-05-10T05:09:19;4.10;;;2.70;;
66478;SDS011;53294;47.912;13.526;2023-05-10T05:11:46;3.83;;;2.55;;
66478;SDS011;53294;47.912;13.526;2023-05-10T05:14:12;4.07;;;2.78;;
66478;SDS011;53294;47.912;13.526;2023-05-10T05:16:39;4.05;;;2.75;;
66478;SDS011;53294;47.912;13.526;2023-05-10T05:19:06;3.97;;;2.20;;
66478;SDS011;53294;47.912;13.526;2023-05-10T05:21:32;3.03;;;2.17;;
66478;SDS011;53294;47.912;13.526;2023-05-10T05:23:59;3.90;;;2.30;;
66478;SDS011;53294;47.912;13.526;2023-05-10T05:26:26;5.03;;;2.63;;
66478;SDS011;53294;47.912;13.526;2023-05-10T05:28:53;3.85;;;2.42;;
66478;SDS011;53294;47.912;13.526;2023-05-10T05:31:20;4.35;;;2.63;;
66478;SDS011;53294;47.912;13.526;2023-05-10T05:33:47;4.93;;;3.20;;
66478;SDS011;53294;47.912;13.526;2023-05-10T05:36:14;5.30;;;3.10;;
66478;SDS011;53294;47.912;13.526;2023-05-10T05:38:41;5.25;;;2.70;;
66478;SDS011;53294;47.912;13.526;2023-05-10T05:41:07;4.30;;;3.00;;
66478;SDS011;53294;47.912;13.526;2023-05-10T05:43:34;3.90;;;2.50;;
66478;SDS011;53294;47.912;13.526;2023-05-10T05:46:03;4.18;;;2.65;;
66478;SDS011;53294;47.912;13.526;2023-05-10T05:48:30;3.67;;;2.10;;
66478;SDS011;53294;47.912;13.526;2023-05-10T05:50:57;3.25;;;2.08;;
66478;SDS011;53294;47.912;13.526;2023-05-10T05:53:24;3.15;;;2.08;;
66478;SDS011;53294;47.912;13.526;2023-05-10T05:55:52;2.92;;;2.00;;
66478;SDS011;53294;47.912;13.526;2023-05-10T05:58:22;4.38;;;2.70;;
66478;SDS011;53294;47.912;13.526;2023-05-10T06:00:49;3.42;;;2.42;;
66478;SDS011;53294;47.912;13.526;2023-05-10T06:03:17;3.83;;;2.33;;
66478;SDS011;53294;47.912;13.526;2023-05-10T06:05:44;3.17;;;2.20;;
66478;SDS011;53294;47.912;13.526;2023-05-10T06:08:11;3.70;;;2.30;;
66478;SDS011;53294;47.912;13.526;2023-05-10T06:10:37;4.22;;;2.30;;
66478;SDS011;53294;47.912;13.526;2023-05-10T06:13:04;3.55;;;2.15;;
66478;SDS011;53294;47.912;13.526;2023-05-10T06:15:31;4.05;;;2.42;;
66478;SDS011;53294;47.912;13.526;2023-05-10T06:17:58;3.63;;;2.53;;
66478;SDS011;53294;47.912;13.526;2023-05-10T06:20:25;4.95;;;2.60;;
66478;SDS011;53294;47.912;13.526;2023-05-10T06:22:52;4.10;;;2.60;;
66478;SDS011;53294;47.912;13.526;2023-05-10T06:25:19;3.47;;;2.45;;
66478;SDS011;53294;47.912;13.526;2023-05-10T06:27:46;6.95;;;2.50;;
66478;SDS011;53294;47.912;13.526;2023-05-10T06:30:17;4.50;;;2.60;;
66478;SDS011;53294;47.912;13.526;2023-05-10T06:32:44;3.90;;;2.63;;
66478;SDS011;53294;47.912;13.526;2023-05-10T06:35:12;3.85;;;2.53;;
66478;SDS011;53294;47.912;13.526;2023-05-10T06:37:39;3.42;;;2.47;;
66478;SDS011;53294;47.912;13.526;2023-05-10T06:40:06;4.45;;;3.15;;
66478;SDS011;53294;47.912;13.526;2023-05-10T06:42:33;3.85;;;2.70;;
66478;SDS011;53294;47.912;13.526;2023-05-10T06:44:59;3.85;;;2.55;;
66478;SDS011;53294;47.912;13.526;2023-05-10T06:47:26;5.47;;;2.97;;
66478;SDS011;53294;47.912;13.526;2023-05-10T06:49:53;3.60;;;2.35;;
66478;SDS011;53294;47.912;13.526;2023-05-10T06:52:20;2.40;;;1.73;;
66478;SDS011;53294;47.912;13.526;2023-05-10T06:54:46;4.50;;;2.03;;
66478;SDS011;53294;47.912;13.526;2023-05-10T06:57:13;3.72;;;1.80;;
66478;SDS011;53294;47.912;13.526;2023-05-10T06:59:55;3.45;;;2.45;;
66478;SDS011;53294;47.912;13.526;2023-05-10T07:02:22;2.97;;;1.70;;
66478;SDS011;53294;47.912;13.526;2023-05-10T07:04:49;1.95;;;1.23;;
66478;SDS011;53294;47.912;13.526;2023-05-10T07:07:18;3.22;;;1.67;;
66478;SDS011;53294;47.912;13.526;2023-05-10T07:09:45;2.40;;;1.38;;
66478;SDS011;53294;47.912;13.526;2023-05-10T07:12:12;3.03;;;1.70;;
66478;SDS011;53294;47.912;13.526;2023-05-10T07:14:40;2.47;;;1.60;;
66478;SDS011;53294;47.912;13.526;2023-05-10T07:17:08;2.70;;;1.77;;
66478;SDS011;53294;47.912;13.526;2023-05-10T07:19:34;2.83;;;1.92;;
66478;SDS011;53294;47.912;13.526;2023-05-10T07:22:02;3.10;;;1.98;;
66478;SDS011;53294;47.912;13.526;2023-05-10T07:24:29;4.03;;;2.17;;
66478;SDS011;53294;47.912;13.526;2023-05-10T07:26:56;4.80;;;2.38;;
66478;SDS011;53294;47.912;13.526;2023-05-10T07:29:22;4.32;;;2.15;;
66478;SDS011;53294;47.912;13.526;2023-05-10T07:31:49;4.05;;;2.50;;
66478;SDS011;53294;47.912;13.526;2023-05-10T07:34:16;3.90;;;2.25;;
66478;SDS011;53294;47.912;13.526;2023-05-10T07:36:43;4.10;;;2.42;;
66478;SDS011;53294;47.912;13.526;2023-05-10T07:39:10;3.17;;;2.22;;
66478;SDS011;53294;47.912;13.526;2023-05-10T07:41:41;3.58;;;2.42;;
66478;SDS011;53294;47.912;13.526;2023-05-10T07:44:08;3.38;;;1.98;;
66478;SDS011;53294;47.912;13.526;2023-05-10T07:46:34;3.17;;;1.90;;
66478;SDS011;53294;47.912;13.526;2023-05-10T07:49:01;2.90;;;1.90;;
66478;SDS011;53294;47.912;13.526;2023-05-10T07:51:28;3.67;;;2.33;;
66478;SDS011;53294;47.912;13.526;2023-05-10T07:53:54;4.00;;;2.25;;
66478;SDS011;53294;47.912;13.526;2023-05-10T07:56:25;4.32;;;2.58;;
66478;SDS011;53294;47.912;13.526;2023-05-10T07:58:56;4.30;;;2.72;;
66478;SDS011;53294;47.912;13.526;2023-05-10T08:01:24;4.72;;;2.40;;
66478;SDS011;53294;47.912;13.526;2023-05-10T08:03:51;3.80;;;2.58;;
66478;SDS011;53294;47.912;13.526;2023-05-10T08:06:19;4.40;;;2.72;;
66478;SDS011;53294;47.912;13.526;2023-05-10T08:08:47;5.35;;;2.70;;
66478;SDS011;53294;47.912;13.526;2023-05-10T08:11:19;4.88;;;2.95;;
66478;SDS011;53294;47.912;13.526;2023-05-10T08:13:47;4.40;;;2.55;;
66478;SDS011;53294;47.912;13.526;2023-05-10T08:16:15;4.47;;;2.47;;
66478;SDS011;53294;47.912;13.526;2023-05-10T08:18:43;5.13;;;2.88;;
66478;SDS011;53294;47.912;13.526;2023-05-10T08:21:14;4.80;;;2.80;;
66478;SDS011;53294;47.912;13.526;2023-05-10T08:23:41;4.90;;;3.20;;
66478;SDS011;53294;47.912;13.526;2023-05-10T08:26:10;4.45;;;2.70;;
66478;SDS011;53294;47.912;13.526;2023-05-10T08:28:37;5.55;;;3.35;;
66478;SDS011;53294;47.912;13.526;2023-05-10T08:31:04;4.25;;;2.70;;
66478;SDS011;53294;47.912;13.526;2023-05-10T08:33:31;6.75;;;2.70;;
66478;SDS011;53294;47.912;13.526;2023-05-10T08:35:58;5.18;;;2.85;;
66478;SDS011;53294;47.912;13.526;2023-05-10T08:38:24;4.55;;;2.78;;
66478;SDS011;53294;47.912;13.526;2023-05-10T08:40:52;3.67;;;2.58;;
66478;SDS011;53294;47.912;13.526;2023-05-10T08:43:23;3.42;;;2.38;;
66478;SDS011;53294;47.912;13.526;2023-05-10T08:45:55;3.90;;;2.55;;
66478;SDS011;53294;47.912;13.526;2023-05-10T08:48:25;4.72;;;2.63;;
66478;SDS011;53294;47.912;13.526;2023-05-10T08:50:55;5.30;;;3.28;;
66478;SDS011;53294;47.912;13.526;2023-05-10T08:53:25;4.53;;;2.97;;
66478;SDS011;53294;47.912;13.526;2023-05-10T08:55:55;5.13;;;3.00;;
66478;SDS011;53294;47.912;13.526;2023-05-10T08:58:22;4.55;;;2.90;;
66478;SDS011;53294;47.912;13.526;2023-05-10T09:00:49;4.93;;;2.80;;
66478;SDS011;53294;47.912;13.526;2023-05-10T09:03:18;4.20;;;2.53;;
66478;SDS011;53294;47.912;13.526;2023-05-10T09:05:45;4.30;;;2.28;;
66478;SDS011;53294;47.912;13.526;2023-05-10T09:08:13;5.25;;;3.00;;
66478;SDS011;53294;47.912;13.526;2023-05-10T09:10:43;4.43;;;2.50;;
66478;SDS011;53294;47.912;13.526;2023-05-10T09:13:10;5.10;;;2.83;;
66478;SDS011;53294;47.912;13.526;2023-05-10T09:15:38;4.72;;;2.60;;
66478;SDS011;53294;47.912;13.526;2023-05-10T09:18:04;4.55;;;2.80;;
66478;SDS011;53294;47.912;13.526;2023-05-10T09:20:31;4.75;;;2.10;;
66478;SDS011;53294;47.912;13.526;2023-05-10T09:22:58;5.00;;;3.15;;
66478;SDS011;53294;47.912;13.526;2023-05-10T09:25:25;4.82;;;3.10;;
66478;SDS011;53294;47.912;13.526;2023-05-10T09:27:52;6.28;;;2.85;;
66478;SDS011;53294;47.912;13.526;2023-05-10T09:30:26;4.30;;;2.70;;
66478;SDS011;53294;47.912;13.526;2023-05-10T09:32:54;5.53;;;2.50;;
66478;SDS011;53294;47.912;13.526;2023-05-10T09:35:23;5.05;;;2.80;;
66478;SDS011;53294;47.912;13.526;2023-05-10T09:37:55;3.63;;;2.17;;
66478;SDS011;53294;47.912;13.526;2023-05-10T09:40:23;2.33;;;1.70;;
66478;SDS011;53294;47.912;13.526;2023-05-10T09:42:52;2.25;;;1.40;;
66478;SDS011;53294;47.912;13.526;2023-05-10T09:45:27;1.30;;;1.02;;
66478;SDS011;53294;47.912;13.526;2023-05-10T09:47:58;1.23;;;1.10;;
66478;SDS011;53294;47.912;13.526;2023-05-10T09:50:25;1.23;;;0.90;;
66478;SDS011;53294;47.912;13.526;2023-05-10T09:52:54;1.50;;;1.00;;
66478;SDS011;53294;47.912;13.526;2023-05-10T09:55:26;2.30;;;1.08;;
66478;SDS011;53294;47.912;13.526;2023-05-10T09:58:11;1.88;;;1.10;;
66478;SDS011;53294;47.912;13.526;2023-05-10T10:00:40;2.53;;;1.75;;
66478;SDS011;53294;47.912;13.526;2023-05-10T10:03:14;3.83;;;2.50;;
66478;SDS011;53294;47.912;13.526;2023-05-10T10:05:42;4.18;;;2.33;;
66478;SDS011;53294;47.912;13.526;2023-05-10T10:08:10;5.88;;;3.40;;
66478;SDS011;53294;47.912;13.526;2023-05-10T10:10:38;5.15;;;3.17;;
66478;SDS011;53294;47.912;13.526;2023-05-10T10:13:07;5.13;;;3.08;;
66478;SDS011;53294;47.912;13.526;2023-05-10T10:15:34;5.35;;;3.70;;
66478;SDS011;53294;47.912;13.526;2023-05-10T10:18:01;3.80;;;2.20;;
66478;SDS011;53294;47.912;13.526;2023-05-10T10:20:29;6.10;;;3.60;;
66478;SDS011;53294;47.912;13.526;2023-05-10T10:22:56;2.15;;;1.30;;
66478;SDS011;53294;47.912;13.526;2023-05-10T10:25:23;2.88;;;1.45;;
66478;SDS011;53294;47.912;13.526;2023-05-10T10:30:29;2.70;;;1.70;;
66478;SDS011;53294;47.912;13.526;2023-05-10T10:35:55;2.88;;;1.70;;
66478;SDS011;53294;47.912;13.526;2023-05-10T10:38:25;3.20;;;1.90;;
66478;SDS011;53294;47.912;13.526;2023-05-10T10:41:10;4.28;;;2.55;;
66478;SDS011;53294;47.912;13.526;2023-05-10T10:49:38;5.85;;;3.75;;
66478;SDS011;53294;47.912;13.526;2023-05-10T10:55:10;6.97;;;4.15;;
66478;SDS011;53294;47.912;13.526;2023-05-10T10:57:56;7.30;;;3.40;;
66478;SDS011;53294;47.912;13.526;2023-05-10T11:00:35;7.35;;;4.10;;
66478;SDS011;53294;47.912;13.526;2023-05-10T11:03:04;6.28;;;3.92;;
66478;SDS011;53294;47.912;13.526;2023-05-10T11:05:41;5.10;;;3.38;;
66478;SDS011;53294;47.912;13.526;2023-05-10T11:08:16;6.07;;;3.85;;
66478;SDS011;53294;47.912;13.526;2023-05-10T11:13:40;6.40;;;3.60;;
66478;SDS011;53294;47.912;13.526;2023-05-10T11:21:31;3.90;;;2.75;;
66478;SDS011;53294;47.912;13.526;2023-05-10T11:24:00;4.90;;;2.65;;
66478;SDS011;53294;47.912;13.526;2023-05-10T11:26:33;4.35;;;2.53;;
66478;SDS011;53294;47.912;13.526;2023-05-10T11:29:01;4.55;;;2.65;;
66478;SDS011;53294;47.912;13.526;2023-05-10T11:31:29;4.35;;;2.25;;
66478;SDS011;53294;47.912;13.526;2023-05-10T11:33:57;3.83;;;2.60;;
66478;SDS011;53294;47.912;13.526;2023-05-10T11:36:26;3.83;;;2.30;;
66478;SDS011;53294;47.912;13.526;2023-05-10T11:39:02;4.97;;;2.60;;
66478;SDS011;53294;47.912;13.526;2023-05-10T11:41:30;4.45;;;2.70;;
66478;SDS011;53294;47.912;13.526;2023-05-10T11:43:57;4.90;;;2.83;;
66478;SDS011;53294;47.912;13.526;2023-05-10T11:46:25;5.80;;;3.15;;
66478;SDS011;53294;47.912;13.526;2023-05-10T11:48:55;5.00;;;2.70;;
66478;SDS011;53294;47.912;13.526;2023-05-10T11:51:27;4.57;;;2.65;;
66478;SDS011;53294;47.912;13.526;2023-05-10T11:53:54;3.30;;;2.20;;
66478;SDS011;53294;47.912;13.526;2023-05-10T11:56:22;4.47;;;2.70;;
66478;SDS011;53294;47.912;13.526;2023-05-10T11:58:56;4.88;;;2.83;;
66478;SDS011;53294;47.912;13.526;2023-05-10T12:01:24;3.03;;;1.90;;
66478;SDS011;53294;47.912;13.526;2023-05-10T12:03:53;3.33;;;2.10;;
66478;SDS011;53294;47.912;13.526;2023-05-10T12:06:21;3.10;;;2.25;;
66478;SDS011;53294;47.912;13.526;2023-05-10T12:08:48;4.25;;;2.22;;
66478;SDS011;53294;47.912;13.526;2023-05-10T12:11:20;4.57;;;2.97;;
66478;SDS011;53294;47.912;13.526;2023-05-10T12:13:51;4.47;;;2.85;;
66478;SDS011;53294;47.912;13.526;2023-05-10T12:16:18;3.58;;;2.40;;
66478;SDS011;53294;47.912;13.526;2023-05-10T12:18:50;4.13;;;2.42;;
66478;SDS011;53294;47.912;13.526;2023-05-10T12:21:18;4.00;;;2.60;;
66478;SDS011;53294;47.912;13.526;2023-05-10T12:23:46;3.40;;;2.17;;
66478;SDS011;53294;47.912;13.526;2023-05-10T12:26:17;3.83;;;2.15;;
66478;SDS011;53294;47.912;13.526;2023-05-10T12:28:43;4.40;;;2.28;;
66478;SDS011;53294;47.912;13.526;2023-05-10T12:31:10;2.80;;;2.13;;
66478;SDS011;53294;47.912;13.526;2023-05-10T12:33:38;3.65;;;2.15;;
66478;SDS011;53294;47.912;13.526;2023-05-10T12:36:12;3.83;;;1.92;;
66478;SDS011;53294;47.912;13.526;2023-05-10T12:38:43;2.65;;;1.83;;
66478;SDS011;53294;47.912;13.526;2023-05-10T12:41:15;2.90;;;1.85;;
66478;SDS011;53294;47.912;13.526;2023-05-10T12:43:43;2.65;;;1.90;;
66478;SDS011;53294;47.912;13.526;2023-05-10T12:46:12;3.45;;;1.80;;
66478;SDS011;53294;47.912;13.526;2023-05-10T12:48:41;3.13;;;1.88;;
66478;SDS011;53294;47.912;13.526;2023-05-10T12:51:09;3.08;;;1.80;;
66478;SDS011;53294;47.912;13.526;2023-05-10T12:53:39;2.25;;;1.65;;
66478;SDS011;53294;47.912;13.526;2023-05-10T12:56:09;3.70;;;1.70;;
66478;SDS011;53294;47.912;13.526;2023-05-10T12:58:36;3.15;;;1.98;;
66478;SDS011;53294;47.912;13.526;2023-05-10T13:01:02;3.17;;;1.95;;
66478;SDS011;53294;47.912;13.526;2023-05-10T13:03:30;3.10;;;1.98;;
66478;SDS011;53294;47.912;13.526;2023-05-10T13:05:57;3.58;;;1.95;;
66478;SDS011;53294;47.912;13.526;2023-05-10T13:08:23;3.03;;;1.70;;
66478;SDS011;53294;47.912;13.526;2023-05-10T13:10:50;3.40;;;1.88;;
66478;SDS011;53294;47.912;13.526;2023-05-10T13:13:17;3.20;;;1.77;;
66478;SDS011;53294;47.912;13.526;2023-05-10T13:15:44;2.65;;;1.52;;
66478;SDS011;53294;47.912;13.526;2023-05-10T13:18:11;2.83;;;1.60;;
66478;SDS011;53294;47.912;13.526;2023-05-10T13:20:37;4.15;;;1.90;;
66478;SDS011;53294;47.912;13.526;2023-05-10T13:23:04;3.55;;;2.03;;
66478;SDS011;53294;47.912;13.526;2023-05-10T13:25:31;3.80;;;2.30;;
66478;SDS011;53294;47.912;13.526;2023-05-10T13:27:57;3.28;;;1.80;;
66478;SDS011;53294;47.912;13.526;2023-05-10T13:30:24;2.58;;;1.60;;
66478;SDS011;53294;47.912;13.526;2023-05-10T13:32:51;2.95;;;1.80;;
66478;SDS011;53294;47.912;13.526;2023-05-10T13:35:18;2.33;;;1.50;;
66478;SDS011;53294;47.912;13.526;2023-05-10T13:37:44;1.88;;;1.27;;
66478;SDS011;53294;47.912;13.526;2023-05-10T13:40:11;4.03;;;1.70;;
66478;SDS011;53294;47.912;13.526;2023-05-10T13:42:38;2.60;;;1.60;;
66478;SDS011;53294;47.912;13.526;2023-05-10T13:45:05;1.92;;;1.48;;
66478;SDS011;53294;47.912;13.526;2023-05-10T13:47:32;1.83;;;1.30;;
66478;SDS011;53294;47.912;13.526;2023-05-10T13:49:59;3.08;;;1.40;;
66478;SDS011;53294;47.912;13.526;2023-05-10T13:52:25;2.63;;;1.35;;
66478;SDS011;53294;47.912;13.526;2023-05-10T13:54:52;1.88;;;1.38;;
66478;SDS011;53294;47.912;13.526;2023-05-10T13:57:21;2.30;;;0.90;;
66478;SDS011;53294;47.912;13.526;2023-05-10T13:59:49;1.42;;;0.93;;
66478;SDS011;53294;47.912;13.526;2023-05-10T14:02:16;0.85;;;0.73;;
66478;SDS011;53294;47.912;13.526;2023-05-10T14:04:43;0.80;;;0.73;;
66478;SDS011;53294;47.912;13.526;2023-05-10T14:07:10;1.55;;;1.08;;
66478;SDS011;53294;47.912;13.526;2023-05-10T14:09:36;1.05;;;0.90;;
66478;SDS011;53294;47.912;13.526;2023-05-10T14:12:03;1.33;;;0.70;;
66478;SDS011;53294;47.912;13.526;2023-05-10T14:14:30;3.08;;;1.25;;
66478;SDS011;53294;47.912;13.526;2023-05-10T14:16:56;2.90;;;1.13;;
66478;SDS011;53294;47.912;13.526;2023-05-10T14:19:23;1.45;;;0.90;;
66478;SDS011;53294;47.912;13.526;2023-05-10T14:21:50;2.85;;;1.20;;
66478;SDS011;53294;47.912;13.526;2023-05-10T14:24:18;1.10;;;1.00;;
66478;SDS011;53294;47.912;13.526;2023-05-10T14:26:44;1.42;;;1.10;;
66478;SDS011;53294;47.912;13.526;2023-05-10T14:29:11;2.00;;;1.25;;
66478;SDS011;53294;47.912;13.526;2023-05-10T14:31:38;1.52;;;1.08;;
66478;SDS011;53294;47.912;13.526;2023-05-10T14:34:05;1.15;;;0.80;;
66478;SDS011;53294;47.912;13.526;2023-05-10T14:36:32;1.02;;;0.90;;
66478;SDS011;53294;47.912;13.526;2023-05-10T14:38:58;2.28;;;1.20;;
66478;SDS011;53294;47.912;13.526;2023-05-10T14:41:25;3.22;;;1.10;;
66478;SDS011;53294;47.912;13.526;2023-05-10T14:43:53;0.80;;;0.80;;
66478;SDS011;53294;47.912;13.526;2023-05-10T14:46:20;1.55;;;1.05;;
66478;SDS011;53294;47.912;13.526;2023-05-10T14:48:47;2.53;;;1.40;;
66478;SDS011;53294;47.912;13.526;2023-05-10T14:51:13;3.65;;;1.60;;
66478;SDS011;53294;47.912;13.526;2023-05-10T14:53:40;3.97;;;1.60;;
66478;SDS011;53294;47.912;13.526;2023-05-10T14:56:07;2.17;;;1.60;;
66478;SDS011;53294;47.912;13.526;2023-05-10T14:58:33;3.10;;;1.52;;
66478;SDS011;53294;47.912;13.526;2023-05-10T15:01:00;5.10;;;1.90;;
66478;SDS011;53294;47.912;13.526;2023-05-10T15:03:27;3.83;;;2.10;;
66478;SDS011;53294;47.912;13.526;2023-05-10T15:05:55;3.05;;;1.70;;
66478;SDS011;53294;47.912;13.526;2023-05-10T15:08:23;3.05;;;1.90;;
66478;SDS011;53294;47.912;13.526;2023-05-10T15:10:54;3.50;;;1.80;;
66478;SDS011;53294;47.912;13.526;2023-05-10T15:13:22;3.03;;;1.80;;
66478;SDS011;53294;47.912;13.526;2023-05-10T15:15:48;4.20;;;1.88;;
66478;SDS011;53294;47.912;13.526;2023-05-10T15:18:15;3.10;;;1.65;;